Archival Weather

Chicago O'Hare International

Chicago, Illinois (KORD)

Report from: Monday, December 26, 2022 3:51 PM CST
Current time: Friday, June 21, 2024 3:30 AM CDT

Current weather – Weather history – Daily summaries
Weather forecast

Temperature-5.6°C (21.9°F)
Wind chill-9.1°C (15.7°F)
Dew point-12.2°C (10.0°F)
Winds 4 kts (2.1 m/s, 4.6 mph) North (10°)
Visibility10 mi. (16.1 km)
Clouds Few clouds 4,100 ft. (1,250 m)
Ceiling: Broken clouds 6,000 ft. (1,829 m)
Broken clouds 7,500 ft. (2,286 m)
Broken clouds 25,000 ft. (7,620 m)
Altimeter30.16 in.Hg (1021 mB)
Relative humidity60 %
Density altitude-2,824 ft. (-861 m)
Sea-level pressure102.3 kPa (1023 mB, 30.19 in.Hg)
Remarks System requires maintenance
Automated weather observing station with precipitation discriminator
Flight conditions Visual Meteorological Conditions
Raw dataKORD 262151Z 01004KT 10SM FEW041 BKN060 BKN075 BKN250 M06/M12 A3016 RMK AO2 SLP225 T10561122 $
An error has occurred. This application may no longer respond until reloaded. Reload 🗙